sensor_id;sensor_type;location;lat;lon;timestamp;pressure;altitude;pressure_sealevel;temperature;humidity
44309;BME280;30022;55.846;37.340;2022-11-14T00:00:52;46695.22;;;-143.51;29.51
44309;BME280;30022;55.846;37.340;2022-11-14T00:03:36;46716.94;;;-143.51;29.26
44309;BME280;30022;55.846;37.340;2022-11-14T00:06:20;46730.75;;;-143.51;28.05
44309;BME280;30022;55.846;37.340;2022-11-14T00:09:04;46689.28;;;-143.51;29.48
44309;BME280;30022;55.846;37.340;2022-11-14T00:11:49;46661.63;;;-143.51;30.29
44309;BME280;30022;55.846;37.340;2022-11-14T00:14:33;46651.75;;;-143.51;31.37
44309;BME280;30022;55.846;37.340;2022-11-14T00:17:17;46669.53;;;-143.51;29.63
44309;BME280;30022;55.846;37.340;2022-11-14T00:20:04;46677.44;;;-143.51;29.64
44309;BME280;30022;55.846;37.340;2022-11-14T00:22:48;46691.25;;;-143.51;29.35
44309;BME280;30022;55.846;37.340;2022-11-14T00:25:34;46685.34;;;-143.51;29.22
44309;BME280;30022;55.846;37.340;2022-11-14T00:28:18;46675.47;;;-143.51;28.74
44309;BME280;30022;55.846;37.340;2022-11-14T00:31:03;46679.41;;;-143.51;29.83
44309;BME280;30022;55.846;37.340;2022-11-14T00:33:47;46657.69;;;-143.51;29.30
44309;BME280;30022;55.846;37.340;2022-11-14T00:36:31;46689.28;;;-143.51;28.88
44309;BME280;30022;55.846;37.340;2022-11-14T00:39:16;46701.13;;;-143.51;29.01
44309;BME280;30022;55.846;37.340;2022-11-14T00:42:00;46703.13;;;-143.51;28.80
44309;BME280;30022;55.846;37.340;2022-11-14T00:44:44;46718.91;;;-143.51;28.81
44309;BME280;30022;55.846;37.340;2022-11-14T00:47:29;46663.63;;;-143.51;28.70
44309;BME280;30022;55.846;37.340;2022-11-14T00:50:14;46720.88;;;-143.51;29.70
44309;BME280;30022;55.846;37.340;2022-11-14T00:52:58;46683.38;;;-143.51;28.85
44309;BME280;30022;55.846;37.340;2022-11-14T00:55:43;46677.44;;;-143.51;29.30
44309;BME280;30022;55.846;37.340;2022-11-14T00:58:27;46691.25;;;-143.51;28.88
44309;BME280;30022;55.846;37.340;2022-11-14T01:01:11;46665.59;;;-143.51;30.49
44309;BME280;30022;55.846;37.340;2022-11-14T01:03:56;46673.50;;;-143.51;29.38
44309;BME280;30022;55.846;37.340;2022-11-14T01:06:41;46673.50;;;-143.51;29.02
44309;BME280;30022;55.846;37.340;2022-11-14T01:09:25;46661.63;;;-143.51;28.77
44309;BME280;30022;55.846;37.340;2022-11-14T01:12:09;46651.75;;;-143.51;29.33
44309;BME280;30022;55.846;37.340;2022-11-14T01:14:54;46659.66;;;-143.51;28.56
44309;BME280;30022;55.846;37.340;2022-11-14T01:17:38;46713.00;;;-143.51;28.84
44309;BME280;30022;55.846;37.340;2022-11-14T01:20:22;46649.78;;;-143.51;29.67
44309;BME280;30022;55.846;37.340;2022-11-14T01:23:07;46661.63;;;-143.51;29.11
44309;BME280;30022;55.846;37.340;2022-11-14T01:25:51;46667.56;;;-143.51;28.67
44309;BME280;30022;55.846;37.340;2022-11-14T01:28:36;46655.72;;;-143.51;28.51
44309;BME280;30022;55.846;37.340;2022-11-14T01:31:21;46679.41;;;-143.51;29.72
44309;BME280;30022;55.846;37.340;2022-11-14T01:34:06;46705.09;;;-143.51;29.03
44309;BME280;30022;55.846;37.340;2022-11-14T01:36:51;46683.38;;;-143.51;29.30
44309;BME280;30022;55.846;37.340;2022-11-14T01:39:35;46679.41;;;-143.51;28.98
44309;BME280;30022;55.846;37.340;2022-11-14T01:42:19;46677.44;;;-143.51;28.83
44309;BME280;30022;55.846;37.340;2022-11-14T01:48:30;46689.28;;;-143.51;28.10
44309;BME280;30022;55.846;37.340;2022-11-14T01:54:17;46614.25;;;-143.51;29.28
44309;BME280;30022;55.846;37.340;2022-11-14T01:57:04;46677.44;;;-143.51;29.15
44309;BME280;30022;55.846;37.340;2022-11-14T01:59:50;46647.81;;;-143.51;28.96
44309;BME280;30022;55.846;37.340;2022-11-14T02:02:35;46669.53;;;-143.51;29.88
44309;BME280;30022;55.846;37.340;2022-11-14T02:05:20;46649.78;;;-143.51;28.43
44309;BME280;30022;55.846;37.340;2022-11-14T02:08:05;46635.97;;;-143.51;28.74
44309;BME280;30022;55.846;37.340;2022-11-14T02:10:52;46622.16;;;-143.51;28.73
44309;BME280;30022;55.846;37.340;2022-11-14T02:13:37;46630.03;;;-143.51;28.63
44309;BME280;30022;55.846;37.340;2022-11-14T02:16:41;46681.38;;;-143.51;29.28
44309;BME280;30022;55.846;37.340;2022-11-14T02:19:39;46681.38;;;-143.51;27.69
44309;BME280;30022;55.846;37.340;2022-11-14T02:22:23;46653.75;;;-143.51;27.78
44309;BME280;30022;55.846;37.340;2022-11-14T02:25:08;46655.72;;;-143.51;29.12
44309;BME280;30022;55.846;37.340;2022-11-14T02:27:52;46669.53;;;-143.51;28.57
44309;BME280;30022;55.846;37.340;2022-11-14T02:30:36;46703.13;;;-143.51;27.64
44309;BME280;30022;55.846;37.340;2022-11-14T02:33:21;46657.69;;;-143.51;27.06
44309;BME280;30022;55.846;37.340;2022-11-14T02:36:05;46637.94;;;-143.51;28.17
44309;BME280;30022;55.846;37.340;2022-11-14T02:38:49;46677.44;;;-143.51;27.39
44309;BME280;30022;55.846;37.340;2022-11-14T02:41:34;46699.16;;;-143.51;27.45
44309;BME280;30022;55.846;37.340;2022-11-14T02:44:18;46653.75;;;-143.51;27.96
44309;BME280;30022;55.846;37.340;2022-11-14T02:47:02;46675.47;;;-143.51;27.33
44309;BME280;30022;55.846;37.340;2022-11-14T02:49:47;46689.28;;;-143.51;27.72
44309;BME280;30022;55.846;37.340;2022-11-14T02:52:31;46732.75;;;-143.51;27.09
44309;BME280;30022;55.846;37.340;2022-11-14T02:55:15;46720.88;;;-143.51;27.40
44309;BME280;30022;55.846;37.340;2022-11-14T02:58:00;46697.19;;;-143.51;27.46
44309;BME280;30022;55.846;37.340;2022-11-14T03:00:44;46651.75;;;-143.51;28.04
44309;BME280;30022;55.846;37.340;2022-11-14T03:03:28;46657.69;;;-143.51;26.57
44309;BME280;30022;55.846;37.340;2022-11-14T03:06:12;46628.06;;;-143.51;27.21
44309;BME280;30022;55.846;37.340;2022-11-14T03:08:57;46632.03;;;-143.51;26.61
44309;BME280;30022;55.846;37.340;2022-11-14T03:11:41;46675.47;;;-143.51;27.51
44309;BME280;30022;55.846;37.340;2022-11-14T03:14:26;46651.75;;;-143.51;26.78
44309;BME280;30022;55.846;37.340;2022-11-14T03:17:10;46655.72;;;-143.51;26.30
44309;BME280;30022;55.846;37.340;2022-11-14T03:19:59;46671.50;;;-143.51;26.74
44309;BME280;30022;55.846;37.340;2022-11-14T03:22:43;46653.75;;;-143.51;27.26
44309;BME280;30022;55.846;37.340;2022-11-14T03:25:27;46681.38;;;-143.51;27.16
44309;BME280;30022;55.846;37.340;2022-11-14T03:28:12;46663.63;;;-143.51;26.56
44309;BME280;30022;55.846;37.340;2022-11-14T03:30:56;46630.03;;;-143.51;26.62
44309;BME280;30022;55.846;37.340;2022-11-14T03:33:40;46707.06;;;-143.51;26.82
44309;BME280;30022;55.846;37.340;2022-11-14T03:36:25;46645.84;;;-143.51;25.89
44309;BME280;30022;55.846;37.340;2022-11-14T03:39:09;46653.75;;;-143.51;26.01
44309;BME280;30022;55.846;37.340;2022-11-14T03:41:53;46667.56;;;-143.51;26.76
44309;BME280;30022;55.846;37.340;2022-11-14T03:44:38;46643.88;;;-143.51;25.88
44309;BME280;30022;55.846;37.340;2022-11-14T03:47:22;46632.03;;;-143.51;25.74
44309;BME280;30022;55.846;37.340;2022-11-14T03:50:06;46641.88;;;-143.51;25.47
44309;BME280;30022;55.846;37.340;2022-11-14T03:52:51;46651.75;;;-143.51;26.46
44309;BME280;30022;55.846;37.340;2022-11-14T03:55:36;46699.16;;;-143.51;25.76
44309;BME280;30022;55.846;37.340;2022-11-14T03:58:21;46639.91;;;-143.51;25.58
44309;BME280;30022;55.846;37.340;2022-11-14T04:01:06;46679.41;;;-143.51;25.85
44309;BME280;30022;55.846;37.340;2022-11-14T04:03:50;46691.25;;;-143.51;26.37
44309;BME280;30022;55.846;37.340;2022-11-14T04:06:34;46669.53;;;-143.51;25.76
44309;BME280;30022;55.846;37.340;2022-11-14T04:09:19;46647.81;;;-143.51;24.78
44309;BME280;30022;55.846;37.340;2022-11-14T04:12:03;46635.97;;;-143.51;25.73
44309;BME280;30022;55.846;37.340;2022-11-14T04:14:47;46663.63;;;-143.51;26.53
44309;BME280;30022;55.846;37.340;2022-11-14T04:17:32;46657.69;;;-143.51;25.72
44309;BME280;30022;55.846;37.340;2022-11-14T04:20:17;46689.28;;;-143.51;26.24
44309;BME280;30022;55.846;37.340;2022-11-14T04:23:02;46669.53;;;-143.51;25.52
44309;BME280;30022;55.846;37.340;2022-11-14T04:25:47;46689.28;;;-143.51;25.44
44309;BME280;30022;55.846;37.340;2022-11-14T04:28:31;46663.63;;;-143.51;24.96
44309;BME280;30022;55.846;37.340;2022-11-14T04:31:15;46659.66;;;-143.51;25.03
44309;BME280;30022;55.846;37.340;2022-11-14T04:33:59;46643.88;;;-143.51;24.28
44309;BME280;30022;55.846;37.340;2022-11-14T04:36:44;46663.63;;;-143.51;24.92
44309;BME280;30022;55.846;37.340;2022-11-14T04:39:28;46665.59;;;-143.51;25.41
44309;BME280;30022;55.846;37.340;2022-11-14T04:42:13;46645.84;;;-143.51;25.02
44309;BME280;30022;55.846;37.340;2022-11-14T04:44:57;46687.31;;;-143.51;27.67
44309;BME280;30022;55.846;37.340;2022-11-14T04:47:42;46691.25;;;-143.51;25.10
44309;BME280;30022;55.846;37.340;2022-11-14T04:50:26;46657.69;;;-143.51;25.78
44309;BME280;30022;55.846;37.340;2022-11-14T04:53:10;46659.66;;;-143.51;25.16
44309;BME280;30022;55.846;37.340;2022-11-14T04:55:55;46622.16;;;-143.51;24.94
44309;BME280;30022;55.846;37.340;2022-11-14T04:58:39;46618.19;;;-143.51;24.73
44309;BME280;30022;55.846;37.340;2022-11-14T05:01:23;46657.69;;;-143.51;25.22
44309;BME280;30022;55.846;37.340;2022-11-14T05:04:08;46635.97;;;-143.51;24.55
44309;BME280;30022;55.846;37.340;2022-11-14T05:06:52;46653.75;;;-143.51;25.36
44309;BME280;30022;55.846;37.340;2022-11-14T05:09:37;46630.03;;;-143.51;26.18
44309;BME280;30022;55.846;37.340;2022-11-14T05:12:21;46663.63;;;-143.51;24.67
44309;BME280;30022;55.846;37.340;2022-11-14T05:15:05;46677.44;;;-143.51;25.23
44309;BME280;30022;55.846;37.340;2022-11-14T05:17:50;46677.44;;;-143.51;25.44
44309;BME280;30022;55.846;37.340;2022-11-14T05:20:34;46634.00;;;-143.51;24.70
44309;BME280;30022;55.846;37.340;2022-11-14T05:23:20;46628.06;;;-143.51;25.08
44309;BME280;30022;55.846;37.340;2022-11-14T05:26:06;46679.41;;;-143.51;24.44
44309;BME280;30022;55.846;37.340;2022-11-14T05:28:50;46665.59;;;-143.51;25.21
44309;BME280;30022;55.846;37.340;2022-11-14T05:31:34;46614.25;;;-143.51;24.17
44309;BME280;30022;55.846;37.340;2022-11-14T05:34:19;46624.13;;;-143.51;25.28
44309;BME280;30022;55.846;37.340;2022-11-14T05:37:03;46663.63;;;-143.51;25.44
44309;BME280;30022;55.846;37.340;2022-11-14T05:39:48;46653.75;;;-143.51;24.16
44309;BME280;30022;55.846;37.340;2022-11-14T05:42:33;46634.00;;;-143.51;25.13
44309;BME280;30022;55.846;37.340;2022-11-14T05:45:17;46626.09;;;-143.51;24.56
44309;BME280;30022;55.846;37.340;2022-11-14T05:48:01;46639.91;;;-143.51;26.13
44309;BME280;30022;55.846;37.340;2022-11-14T05:50:46;46655.72;;;-143.51;25.58
44309;BME280;30022;55.846;37.340;2022-11-14T05:53:31;46618.19;;;-143.51;24.71
44309;BME280;30022;55.846;37.340;2022-11-14T05:56:15;46594.50;;;-143.51;24.52
44309;BME280;30022;55.846;37.340;2022-11-14T05:58:59;46626.09;;;-143.51;24.46
44309;BME280;30022;55.846;37.340;2022-11-14T06:01:43;46663.63;;;-143.51;24.54
44309;BME280;30022;55.846;37.340;2022-11-14T06:04:28;46612.28;;;-143.51;24.68
44309;BME280;30022;55.846;37.340;2022-11-14T06:07:12;46628.06;;;-143.51;24.79
44309;BME280;30022;55.846;37.340;2022-11-14T06:09:56;46637.94;;;-143.51;25.02
44309;BME280;30022;55.846;37.340;2022-11-14T06:12:40;46600.41;;;-143.51;24.53
44309;BME280;30022;55.846;37.340;2022-11-14T06:15:25;46630.03;;;-143.51;24.52
44309;BME280;30022;55.846;37.340;2022-11-14T06:18:09;46661.63;;;-143.51;23.83
44309;BME280;30022;55.846;37.340;2022-11-14T06:20:53;46630.03;;;-143.51;24.43
44309;BME280;30022;55.846;37.340;2022-11-14T06:23:41;46622.16;;;-143.51;23.74
44309;BME280;30022;55.846;37.340;2022-11-14T06:26:26;46663.63;;;-143.51;24.03
44309;BME280;30022;55.846;37.340;2022-11-14T06:29:13;46669.53;;;-143.51;24.66
44309;BME280;30022;55.846;37.340;2022-11-14T06:31:57;46665.59;;;-143.51;24.11
44309;BME280;30022;55.846;37.340;2022-11-14T06:34:41;46635.97;;;-143.51;24.17
44309;BME280;30022;55.846;37.340;2022-11-14T06:37:25;46671.50;;;-143.51;24.03
44309;BME280;30022;55.846;37.340;2022-11-14T06:40:10;46667.56;;;-143.51;24.26
44309;BME280;30022;55.846;37.340;2022-11-14T06:42:54;46657.69;;;-143.51;23.80
44309;BME280;30022;55.846;37.340;2022-11-14T06:45:40;46622.16;;;-143.51;25.11
44309;BME280;30022;55.846;37.340;2022-11-14T06:48:24;46641.88;;;-143.51;24.07
44309;BME280;30022;55.846;37.340;2022-11-14T06:51:10;46614.25;;;-143.51;24.03
44309;BME280;30022;55.846;37.340;2022-11-14T06:53:54;46616.22;;;-143.51;23.55
44309;BME280;30022;55.846;37.340;2022-11-14T06:56:38;46630.03;;;-143.51;23.75
44309;BME280;30022;55.846;37.340;2022-11-14T06:59:22;46645.84;;;-143.51;23.91
44309;BME280;30022;55.846;37.340;2022-11-14T07:02:11;46649.78;;;-143.51;23.74
44309;BME280;30022;55.846;37.340;2022-11-14T07:04:55;46639.91;;;-143.51;24.13
44309;BME280;30022;55.846;37.340;2022-11-14T07:07:40;46657.69;;;-143.51;23.49
44309;BME280;30022;55.846;37.340;2022-11-14T07:10:25;46661.63;;;-143.51;23.97
44309;BME280;30022;55.846;37.340;2022-11-14T07:13:09;46663.63;;;-143.51;23.45
44309;BME280;30022;55.846;37.340;2022-11-14T07:15:54;46657.69;;;-143.51;24.30
44309;BME280;30022;55.846;37.340;2022-11-14T07:18:38;46659.66;;;-143.51;24.79
44309;BME280;30022;55.846;37.340;2022-11-14T07:21:23;46649.78;;;-143.51;23.42
44309;BME280;30022;55.846;37.340;2022-11-14T07:24:07;46661.63;;;-143.51;24.78
44309;BME280;30022;55.846;37.340;2022-11-14T07:26:55;46677.44;;;-143.51;23.60
44309;BME280;30022;55.846;37.340;2022-11-14T07:29:40;46685.34;;;-143.51;24.03
44309;BME280;30022;55.846;37.340;2022-11-14T07:32:24;46651.75;;;-143.51;23.72
44309;BME280;30022;55.846;37.340;2022-11-14T07:35:09;46604.38;;;-143.51;25.20
44309;BME280;30022;55.846;37.340;2022-11-14T07:37:57;46659.66;;;-143.51;24.08
44309;BME280;30022;55.846;37.340;2022-11-14T07:40:52;46667.56;;;-143.51;23.78
44309;BME280;30022;55.846;37.340;2022-11-14T07:43:37;46683.38;;;-143.51;23.67
44309;BME280;30022;55.846;37.340;2022-11-14T07:46:22;46639.91;;;-143.51;23.43
44309;BME280;30022;55.846;37.340;2022-11-14T07:49:06;46645.84;;;-143.51;24.28
44309;BME280;30022;55.846;37.340;2022-11-14T07:51:51;46667.56;;;-143.51;23.83
44309;BME280;30022;55.846;37.340;2022-11-14T07:54:35;46661.63;;;-143.51;23.62
44309;BME280;30022;55.846;37.340;2022-11-14T07:57:20;46643.88;;;-143.51;23.75
44309;BME280;30022;55.846;37.340;2022-11-14T08:00:04;46681.38;;;-143.51;23.74
44309;BME280;30022;55.846;37.340;2022-11-14T08:02:49;46673.50;;;-143.51;24.11
44309;BME280;30022;55.846;37.340;2022-11-14T08:05:35;46634.00;;;-143.51;23.76
44309;BME280;30022;55.846;37.340;2022-11-14T08:08:19;46665.59;;;-143.51;23.75
44309;BME280;30022;55.846;37.340;2022-11-14T08:11:03;46630.03;;;-143.51;23.44
44309;BME280;30022;55.846;37.340;2022-11-14T08:13:48;46647.81;;;-143.51;23.85
44309;BME280;30022;55.846;37.340;2022-11-14T08:16:33;46671.50;;;-143.51;23.53
44309;BME280;30022;55.846;37.340;2022-11-14T08:19:17;46701.13;;;-143.51;23.43
44309;BME280;30022;55.846;37.340;2022-11-14T08:22:01;46655.72;;;-143.51;23.37
44309;BME280;30022;55.846;37.340;2022-11-14T08:24:45;46697.19;;;-143.51;23.46
44309;BME280;30022;55.846;37.340;2022-11-14T08:27:30;46647.81;;;-143.51;23.46
44309;BME280;30022;55.846;37.340;2022-11-14T08:30:14;46673.50;;;-143.51;24.04
44309;BME280;30022;55.846;37.340;2022-11-14T08:33:02;46685.34;;;-143.51;23.17
44309;BME280;30022;55.846;37.340;2022-11-14T08:35:47;46701.13;;;-143.51;23.14
44309;BME280;30022;55.846;37.340;2022-11-14T08:38:31;46693.25;;;-143.51;23.26
44309;BME280;30022;55.846;37.340;2022-11-14T08:41:16;46732.75;;;-143.51;23.33
44309;BME280;30022;55.846;37.340;2022-11-14T08:44:00;46705.09;;;-143.51;23.26
44309;BME280;30022;55.846;37.340;2022-11-14T08:46:44;46653.75;;;-143.51;22.83
44309;BME280;30022;55.846;37.340;2022-11-14T08:49:29;46671.50;;;-143.51;23.31
44309;BME280;30022;55.846;37.340;2022-11-14T08:52:13;46681.38;;;-143.51;22.83
44309;BME280;30022;55.846;37.340;2022-11-14T08:54:57;46709.03;;;-143.51;22.90
44309;BME280;30022;55.846;37.340;2022-11-14T08:57:42;46697.19;;;-143.51;22.93
44309;BME280;30022;55.846;37.340;2022-11-14T09:00:26;46701.13;;;-143.51;22.61
44309;BME280;30022;55.846;37.340;2022-11-14T09:03:11;46707.06;;;-143.51;23.05
44309;BME280;30022;55.846;37.340;2022-11-14T09:05:57;46649.78;;;-143.51;22.22
44309;BME280;30022;55.846;37.340;2022-11-14T09:08:41;46693.25;;;-143.51;22.74
44309;BME280;30022;55.846;37.340;2022-11-14T09:11:25;46711.00;;;-143.51;22.62
44309;BME280;30022;55.846;37.340;2022-11-14T09:14:10;46724.84;;;-143.51;22.73
44309;BME280;30022;55.846;37.340;2022-11-14T09:16:55;46671.50;;;-143.51;22.49
44309;BME280;30022;55.846;37.340;2022-11-14T09:19:39;46679.41;;;-143.51;22.65
44309;BME280;30022;55.846;37.340;2022-11-14T09:22:23;46709.03;;;-143.51;22.55
44309;BME280;30022;55.846;37.340;2022-11-14T09:25:07;46699.16;;;-143.51;22.71
44309;BME280;30022;55.846;37.340;2022-11-14T09:27:52;46653.75;;;-143.51;22.34
44309;BME280;30022;55.846;37.340;2022-11-14T09:30:36;46665.59;;;-143.51;22.58
44309;BME280;30022;55.846;37.340;2022-11-14T09:33:26;46681.38;;;-143.51;22.71
44309;BME280;30022;55.846;37.340;2022-11-14T09:36:11;46683.38;;;-143.51;22.59
44309;BME280;30022;55.846;37.340;2022-11-14T09:38:58;46697.19;;;-143.51;22.67
44309;BME280;30022;55.846;37.340;2022-11-14T09:47:55;46673.50;;;-143.51;22.55
44309;BME280;30022;55.846;37.340;2022-11-14T09:50:47;46701.13;;;-143.51;22.69
44309;BME280;30022;55.846;37.340;2022-11-14T09:56:28;46713.00;;;-143.51;22.11
44309;BME280;30022;55.846;37.340;2022-11-14T09:59:14;46691.25;;;-143.51;22.05
44309;BME280;30022;55.846;37.340;2022-11-14T10:02:19;46726.81;;;-143.51;22.34
44309;BME280;30022;55.846;37.340;2022-11-14T10:05:12;46701.13;;;-143.51;21.87
44309;BME280;30022;55.846;37.340;2022-11-14T10:16:48;46669.53;;;-143.51;22.00
44309;BME280;30022;55.846;37.340;2022-11-14T10:19:46;46713.00;;;-143.51;22.11
44309;BME280;30022;55.846;37.340;2022-11-14T10:25:38;46732.75;;;-143.51;22.34
44309;BME280;30022;55.846;37.340;2022-11-14T10:34:18;46697.19;;;-143.51;21.99
44309;BME280;30022;55.846;37.340;2022-11-14T10:37:17;46732.75;;;-143.51;21.65
44309;BME280;30022;55.846;37.340;2022-11-14T10:40:24;46697.19;;;-143.51;21.84
44309;BME280;30022;55.846;37.340;2022-11-14T10:46:04;46738.66;;;-143.51;22.08
44309;BME280;30022;55.846;37.340;2022-11-14T10:48:50;46726.81;;;-143.51;21.89
44309;BME280;30022;55.846;37.340;2022-11-14T10:51:36;46734.72;;;-143.51;22.08
44309;BME280;30022;55.846;37.340;2022-11-14T10:54:43;46726.81;;;-143.51;22.00
44309;BME280;30022;55.846;37.340;2022-11-14T10:57:29;46730.75;;;-143.51;22.05
44309;BME280;30022;55.846;37.340;2022-11-14T11:00:17;46677.44;;;-143.51;21.64
44309;BME280;30022;55.846;37.340;2022-11-14T11:03:02;46730.75;;;-143.51;22.06
44309;BME280;30022;55.846;37.340;2022-11-14T11:05:50;46693.25;;;-143.51;22.13
44309;BME280;30022;55.846;37.340;2022-11-14T11:08:41;46718.91;;;-143.51;22.05
44309;BME280;30022;55.846;37.340;2022-11-14T11:11:51;46693.25;;;-143.51;21.80
44309;BME280;30022;55.846;37.340;2022-11-14T11:14:35;46691.25;;;-143.51;21.43
44309;BME280;30022;55.846;37.340;2022-11-14T11:17:23;46709.03;;;-143.51;21.54
44309;BME280;30022;55.846;37.340;2022-11-14T11:26:05;46699.16;;;-143.51;21.79
44309;BME280;30022;55.846;37.340;2022-11-14T11:29:01;46663.63;;;-143.51;21.78
44309;BME280;30022;55.846;37.340;2022-11-14T11:34:31;46697.19;;;-143.51;21.51
44309;BME280;30022;55.846;37.340;2022-11-14T11:40:29;46709.03;;;-143.51;21.69
44309;BME280;30022;55.846;37.340;2022-11-14T11:46:10;46728.78;;;-143.51;21.92
44309;BME280;30022;55.846;37.340;2022-11-14T11:48:58;46734.72;;;-143.51;21.99
44309;BME280;30022;55.846;37.340;2022-11-14T11:51:45;46738.66;;;-143.51;21.68
44309;BME280;30022;55.846;37.340;2022-11-14T11:54:32;46724.84;;;-143.51;21.44
44309;BME280;30022;55.846;37.340;2022-11-14T11:57:18;46707.06;;;-143.51;21.41
44309;BME280;30022;55.846;37.340;2022-11-14T12:00:15;46693.25;;;-143.51;21.73
44309;BME280;30022;55.846;37.340;2022-11-14T12:03:01;46713.00;;;-143.51;21.57
44309;BME280;30022;55.846;37.340;2022-11-14T12:11:46;46732.75;;;-143.51;21.71
44309;BME280;30022;55.846;37.340;2022-11-14T12:20:15;46752.47;;;-143.51;21.27
44309;BME280;30022;55.846;37.340;2022-11-14T12:26:10;46722.88;;;-143.51;21.43
44309;BME280;30022;55.846;37.340;2022-11-14T12:32:02;46718.91;;;-143.51;22.02
44309;BME280;30022;55.846;37.340;2022-11-14T12:34:48;46705.09;;;-143.51;21.44
44309;BME280;30022;55.846;37.340;2022-11-14T12:37:34;46740.63;;;-143.51;21.79
44309;BME280;30022;55.846;37.340;2022-11-14T12:40:26;46736.69;;;-143.51;21.71
44309;BME280;30022;55.846;37.340;2022-11-14T12:43:29;46724.84;;;-143.51;21.99
44309;BME280;30022;55.846;37.340;2022-11-14T12:46:13;46762.34;;;-143.51;21.94
44309;BME280;30022;55.846;37.340;2022-11-14T12:48:58;46768.28;;;-143.51;20.83
44309;BME280;30022;55.846;37.340;2022-11-14T12:54:46;46730.75;;;-143.51;22.01
44309;BME280;30022;55.846;37.340;2022-11-14T13:00:32;46740.63;;;-143.51;21.81
44309;BME280;30022;55.846;37.340;2022-11-14T13:06:08;46730.75;;;-143.51;21.99
44309;BME280;30022;55.846;37.340;2022-11-14T13:11:47;46699.16;;;-143.51;22.16
44309;BME280;30022;55.846;37.340;2022-11-14T13:14:51;46760.38;;;-143.51;22.04
44309;BME280;30022;55.846;37.340;2022-11-14T13:18:01;46724.84;;;-143.51;22.13
44309;BME280;30022;55.846;37.340;2022-11-14T13:21:15;46744.59;;;-143.51;22.29
44309;BME280;30022;55.846;37.340;2022-11-14T13:24:18;46736.69;;;-143.51;22.26
44309;BME280;30022;55.846;37.340;2022-11-14T13:27:22;46730.75;;;-143.51;22.26
44309;BME280;30022;55.846;37.340;2022-11-14T13:30:06;46726.81;;;-143.51;22.33
44309;BME280;30022;55.846;37.340;2022-11-14T13:32:51;46701.13;;;-143.51;22.30
44309;BME280;30022;55.846;37.340;2022-11-14T13:35:37;46730.75;;;-143.51;22.47
44309;BME280;30022;55.846;37.340;2022-11-14T13:38:34;46691.25;;;-143.51;22.44
44309;BME280;30022;55.846;37.340;2022-11-14T13:44:28;46677.44;;;-143.51;22.09
44309;BME280;30022;55.846;37.340;2022-11-14T13:47:34;46724.84;;;-143.51;21.47
44309;BME280;30022;55.846;37.340;2022-11-14T13:50:39;46701.13;;;-143.51;22.02
44309;BME280;30022;55.846;37.340;2022-11-14T13:53:26;46669.53;;;-143.51;22.41
44309;BME280;30022;55.846;37.340;2022-11-14T14:02:07;46689.28;;;-143.51;22.55
44309;BME280;30022;55.846;37.340;2022-11-14T14:05:13;46701.13;;;-143.51;22.43
44309;BME280;30022;55.846;37.340;2022-11-14T14:16:58;46720.88;;;-143.51;21.63
44309;BME280;30022;55.846;37.340;2022-11-14T14:25:24;46720.88;;;-143.51;22.74
44309;BME280;30022;55.846;37.340;2022-11-14T14:31:14;46726.81;;;-143.51;22.76
44309;BME280;30022;55.846;37.340;2022-11-14T14:33:58;46681.38;;;-143.51;21.38
44309;BME280;30022;55.846;37.340;2022-11-14T14:36:51;46697.19;;;-143.51;22.71
44309;BME280;30022;55.846;37.340;2022-11-14T14:39:35;46736.69;;;-143.51;22.71
44309;BME280;30022;55.846;37.340;2022-11-14T14:42:26;46716.94;;;-143.51;22.45
44309;BME280;30022;55.846;37.340;2022-11-14T14:45:13;46693.25;;;-143.51;22.89
44309;BME280;30022;55.846;37.340;2022-11-14T14:48:14;46675.47;;;-143.51;22.77
44309;BME280;30022;55.846;37.340;2022-11-14T14:51:01;46677.44;;;-143.51;22.94
44309;BME280;30022;55.846;37.340;2022-11-14T14:53:51;46667.56;;;-143.51;23.14
44309;BME280;30022;55.846;37.340;2022-11-14T14:56:36;46689.28;;;-143.51;23.00
44309;BME280;30022;55.846;37.340;2022-11-14T14:59:21;46699.16;;;-143.51;22.85
44309;BME280;30022;55.846;37.340;2022-11-14T15:02:10;46677.44;;;-143.51;22.96
44309;BME280;30022;55.846;37.340;2022-11-14T15:04:56;46714.97;;;-143.51;22.88
44309;BME280;30022;55.846;37.340;2022-11-14T15:07:42;46718.91;;;-143.51;22.83
44309;BME280;30022;55.846;37.340;2022-11-14T15:10:29;46693.25;;;-143.51;22.45
44309;BME280;30022;55.846;37.340;2022-11-14T15:13:15;46730.75;;;-143.51;22.75
44309;BME280;30022;55.846;37.340;2022-11-14T15:16:01;46713.00;;;-143.51;22.77
44309;BME280;30022;55.846;37.340;2022-11-14T15:18:46;46691.25;;;-143.51;22.83
44309;BME280;30022;55.846;37.340;2022-11-14T15:21:31;46689.28;;;-143.51;22.76
44309;BME280;30022;55.846;37.340;2022-11-14T15:24:19;46701.13;;;-143.51;23.08
44309;BME280;30022;55.846;37.340;2022-11-14T15:27:15;46697.19;;;-143.51;22.90
44309;BME280;30022;55.846;37.340;2022-11-14T15:30:00;46697.19;;;-143.51;23.08
44309;BME280;30022;55.846;37.340;2022-11-14T15:32:52;46744.59;;;-143.51;22.93
44309;BME280;30022;55.846;37.340;2022-11-14T15:35:37;46728.78;;;-143.51;22.82
44309;BME280;30022;55.846;37.340;2022-11-14T15:38:22;46718.91;;;-143.51;22.70
44309;BME280;30022;55.846;37.340;2022-11-14T15:41:22;46707.06;;;-143.51;22.87
44309;BME280;30022;55.846;37.340;2022-11-14T15:53:03;46722.88;;;-143.51;22.11
44309;BME280;30022;55.846;37.340;2022-11-14T15:55:49;46720.88;;;-143.51;22.42
44309;BME280;30022;55.846;37.340;2022-11-14T15:58:33;46728.78;;;-143.51;22.77
44309;BME280;30022;55.846;37.340;2022-11-14T16:01:20;46722.88;;;-143.51;22.74
44309;BME280;30022;55.846;37.340;2022-11-14T16:04:07;46730.75;;;-143.51;22.91